createdAt,value
2022-11-05T00:01:39.738Z,14.60
2022-11-05T00:06:38.888Z,11.60
2022-11-05T00:11:38.764Z,13.10
2022-11-05T00:16:39.043Z,15.40
2022-11-05T00:21:38.765Z,12.30
2022-11-05T00:26:30.537Z,17.00
2022-11-05T00:31:29.101Z,21.30
2022-11-05T00:36:29.573Z,12.10
2022-11-05T00:41:28.914Z,12.50
2022-11-05T00:46:29.259Z,15.90
2022-11-05T00:51:28.937Z,18.60
2022-11-05T00:56:28.952Z,14.80
2022-11-05T01:01:29.269Z,12.00
2022-11-05T01:06:28.877Z,12.50
2022-11-05T01:11:32.194Z,12.00
2022-11-05T01:16:29.225Z,38.90
2022-11-05T01:21:29.039Z,13.60
2022-11-05T01:26:29.481Z,17.10
2022-11-05T01:31:29.002Z,12.70
2022-11-05T01:36:28.950Z,14.30
2022-11-05T01:41:29.242Z,14.00
2022-11-05T01:46:35.808Z,12.20
2022-11-05T01:51:29.205Z,20.40
2022-11-05T01:56:34.827Z,12.40
2022-11-05T02:01:29.239Z,11.80
2022-11-05T02:06:31.357Z,13.90
2022-11-05T02:11:29.070Z,12.70
2022-11-05T02:16:38.153Z,12.80
2022-11-05T02:21:48.834Z,13.30
2022-11-05T02:26:48.677Z,12.60
2022-11-05T02:31:36.184Z,14.00
2022-11-05T02:36:39.830Z,13.10
2022-11-05T02:41:39.170Z,12.60
2022-11-05T02:46:39.062Z,13.40
2022-11-05T02:51:34.374Z,13.50
2022-11-05T02:56:32.062Z,13.40
2022-11-05T03:01:29.468Z,13.30
2022-11-05T03:06:48.679Z,13.50
2022-11-05T03:11:32.023Z,13.70
2022-11-05T03:16:37.825Z,13.50
2022-11-05T03:21:39.812Z,14.10
2022-11-05T03:26:32.703Z,14.40
2022-11-05T03:31:30.391Z,13.20
2022-11-05T03:36:32.638Z,13.90
2022-11-05T03:41:30.616Z,13.90
2022-11-05T03:46:34.208Z,13.90
2022-11-05T03:51:37.595Z,14.80
2022-11-05T03:56:35.287Z,14.60
2022-11-05T04:01:29.744Z,14.50
2022-11-05T04:06:38.631Z,14.20
2022-11-05T04:11:38.543Z,15.00
2022-11-05T04:16:38.843Z,15.00
2022-11-05T04:21:38.626Z,14.60
2022-11-05T04:26:28.970Z,14.70
2022-11-05T04:31:29.083Z,15.70
2022-11-05T04:36:29.654Z,14.60
2022-11-05T04:41:28.984Z,15.20
2022-11-05T04:46:29.066Z,15.30
2022-11-05T04:51:28.739Z,15.40
2022-11-05T04:56:28.792Z,15.50
2022-11-05T05:01:29.156Z,16.10
2022-11-05T05:06:28.733Z,14.80
2022-11-05T05:11:28.908Z,15.90
2022-11-05T05:16:29.085Z,16.80
2022-11-05T05:21:39.093Z,16.40
2022-11-05T05:26:28.843Z,16.40
2022-11-05T05:31:29.013Z,17.90
2022-11-05T05:36:29.022Z,17.20
2022-11-05T05:41:28.689Z,19.00
2022-11-05T05:46:29.110Z,19.20
2022-11-05T05:51:28.680Z,19.10
2022-11-05T05:56:28.746Z,19.10
2022-11-05T06:01:29.162Z,18.90
2022-11-05T06:06:29.192Z,20.00
2022-11-05T06:11:28.704Z,19.20
2022-11-05T06:16:34.801Z,19.70
2022-11-05T06:21:28.685Z,19.50
2022-11-05T06:26:28.836Z,19.60
2022-11-05T06:31:29.018Z,19.10
2022-11-05T06:36:28.682Z,19.20
2022-11-05T06:41:28.801Z,19.20
2022-11-05T06:46:28.781Z,18.20
2022-11-05T06:51:29.361Z,18.90
2022-11-05T06:56:28.947Z,18.90
2022-11-05T07:01:29.073Z,19.40
2022-11-05T07:06:33.010Z,19.10
2022-11-05T07:11:28.805Z,19.20
2022-11-05T07:16:28.784Z,19.20
2022-11-05T07:21:28.633Z,18.50
2022-11-05T07:26:34.272Z,18.30
2022-11-05T07:31:28.743Z,18.60
2022-11-05T07:36:28.695Z,19.00
2022-11-05T07:41:28.865Z,18.40
2022-11-05T07:46:28.958Z,20.00
2022-11-05T07:51:28.725Z,19.10
2022-11-05T07:56:29.026Z,18.70
2022-11-05T08:01:29.047Z,19.20
2022-11-05T08:06:28.766Z,18.00
2022-11-05T08:11:29.172Z,19.10
2022-11-05T08:16:28.693Z,19.40
2022-11-05T08:21:28.802Z,20.10
2022-11-05T08:26:29.048Z,19.40
2022-11-05T08:31:30.436Z,18.80
2022-11-05T08:36:28.737Z,20.70
2022-11-05T08:41:29.089Z,19.80
2022-11-05T08:46:28.570Z,19.90
2022-11-05T08:51:28.925Z,20.10
2022-11-05T08:56:29.233Z,20.50
2022-11-05T09:01:28.736Z,21.40
2022-11-05T09:06:28.940Z,20.60
2022-11-05T09:11:49.663Z,20.80
2022-11-05T09:16:29.080Z,20.50
2022-11-05T09:21:28.896Z,21.10
2022-11-05T09:26:28.867Z,20.80
2022-11-05T09:31:28.555Z,20.60
2022-11-05T09:36:28.594Z,20.60
2022-11-05T09:41:34.421Z,20.90
2022-11-05T09:46:37.919Z,20.50
2022-11-05T09:51:29.590Z,21.20
2022-11-05T09:56:31.249Z,21.60
2022-11-05T10:01:32.561Z,22.30
2022-11-05T10:06:28.696Z,22.90
2022-11-05T10:11:34.512Z,23.30
2022-11-05T10:16:31.541Z,22.60
2022-11-05T10:21:51.837Z,23.10
2022-11-05T10:26:29.054Z,24.10
2022-11-05T10:31:35.520Z,23.60
2022-11-05T10:36:31.179Z,23.80
2022-11-05T10:41:41.553Z,23.80
2022-11-05T10:46:35.149Z,24.20
2022-11-05T10:51:29.632Z,24.40
2022-11-05T10:56:35.076Z,24.60
2022-11-05T11:01:29.736Z,24.90
2022-11-05T11:06:30.989Z,24.80
2022-11-05T11:11:31.701Z,24.60
2022-11-05T11:16:37.426Z,27.30
2022-11-05T11:21:30.300Z,25.50
2022-11-05T11:26:31.611Z,26.10
2022-11-05T11:31:30.867Z,26.20
2022-11-05T11:36:34.300Z,27.50
2022-11-05T11:41:31.784Z,27.20
2022-11-05T11:46:32.098Z,27.80
2022-11-05T11:51:31.110Z,27.50
2022-11-05T11:56:29.582Z,26.60
2022-11-05T12:01:44.567Z,27.80
2022-11-05T12:06:35.056Z,27.60
2022-11-05T12:11:33.262Z,29.00
2022-11-05T12:16:40.889Z,29.10
2022-11-05T12:21:52.585Z,30.20
2022-11-05T12:26:39.810Z,30.70
2022-11-05T12:31:32.502Z,30.20
2022-11-05T12:36:38.166Z,30.40
2022-11-05T12:41:33.875Z,31.10
2022-11-05T12:46:34.353Z,32.90
2022-11-05T12:51:40.886Z,34.50
2022-11-05T12:56:34.253Z,35.10
2022-11-05T13:01:33.786Z,36.20
2022-11-05T13:06:34.751Z,34.20
2022-11-05T13:11:35.508Z,35.80
2022-11-05T13:16:33.053Z,37.40
2022-11-05T13:21:29.750Z,36.60
2022-11-05T13:26:37.899Z,37.70
2022-11-05T13:31:32.511Z,38.00
2022-11-05T13:36:43.331Z,40.50
2022-11-05T13:41:43.902Z,40.70
2022-11-05T13:46:40.065Z,40.90
2022-11-05T13:51:42.469Z,40.40
2022-11-05T13:56:40.742Z,36.90
2022-11-05T14:01:44.626Z,36.90
2022-11-05T14:06:30.991Z,38.20
2022-11-05T14:11:31.328Z,38.90
2022-11-05T14:16:46.556Z,39.70
2022-11-05T14:21:31.370Z,40.00
2022-11-05T14:26:32.139Z,59.20
2022-11-05T14:31:54.554Z,128.90
2022-11-05T14:36:31.849Z,71.60
2022-11-05T14:41:28.804Z,58.40
2022-11-05T14:46:39.954Z,51.70
2022-11-05T14:51:34.795Z,44.40
2022-11-05T14:56:39.122Z,42.30
2022-11-05T15:01:48.269Z,40.00
2022-11-05T15:06:31.867Z,39.60
2022-11-05T15:11:32.630Z,39.40
2022-11-05T15:16:32.874Z,37.80
2022-11-05T15:21:32.276Z,36.70
2022-11-05T15:26:39.648Z,31.80
2022-11-05T15:31:32.422Z,31.60
2022-11-05T15:36:30.006Z,30.70
2022-11-05T15:41:32.782Z,32.50
2022-11-05T15:46:29.201Z,29.40
2022-11-05T15:51:29.122Z,29.40
2022-11-05T15:56:33.154Z,28.30
2022-11-05T16:01:31.333Z,29.10
2022-11-05T16:06:36.093Z,28.50
2022-11-05T16:11:28.652Z,27.50
2022-11-05T16:16:33.160Z,41.30
2022-11-05T16:21:28.319Z,30.20
2022-11-05T16:27:01.306Z,31.30
2022-11-05T16:31:30.275Z,69.60
2022-11-05T16:36:30.124Z,30.70
2022-11-05T16:41:28.563Z,29.10
2022-11-05T16:46:29.792Z,30.70
2022-11-05T16:51:28.262Z,32.10
2022-11-05T16:56:28.527Z,56.60
2022-11-05T17:01:28.477Z,37.80
2022-11-05T17:06:28.501Z,34.80
2022-11-05T17:11:28.655Z,37.20
2022-11-05T17:16:28.379Z,37.10
2022-11-05T17:21:28.335Z,31.10
2022-11-05T17:26:28.756Z,32.50
2022-11-05T17:31:28.213Z,45.30
2022-11-05T17:36:28.378Z,61.90
2022-11-05T17:41:28.607Z,62.00
2022-11-05T17:46:28.205Z,64.90
2022-11-05T17:51:28.339Z,49.90
2022-11-05T17:56:34.422Z,41.50
2022-11-05T18:01:30.203Z,41.90
2022-11-05T18:06:28.227Z,36.80
2022-11-05T18:11:29.698Z,33.60
2022-11-05T18:16:28.401Z,32.40
2022-11-05T18:21:28.469Z,33.00
2022-11-05T18:26:29.063Z,33.90
2022-11-05T18:31:28.351Z,34.80
2022-11-05T18:36:30.270Z,36.90
2022-11-05T18:41:28.848Z,38.40
2022-11-05T18:46:56.613Z,33.30
2022-11-05T18:51:28.376Z,34.60
2022-11-05T18:56:28.719Z,29.40
2022-11-05T19:01:29.007Z,30.30
2022-11-05T19:06:29.187Z,27.70
2022-11-05T19:11:28.718Z,26.20
2022-11-05T19:16:30.089Z,23.30
2022-11-05T19:21:28.943Z,20.10
2022-11-05T19:26:29.315Z,17.00
2022-11-05T19:31:29.443Z,17.90
2022-11-05T19:36:29.473Z,16.20
2022-11-05T19:41:28.706Z,15.40
2022-11-05T19:46:29.533Z,13.90
2022-11-05T19:51:30.209Z,12.40
2022-11-05T19:56:30.582Z,12.70
2022-11-05T20:01:29.432Z,12.00
2022-11-05T20:06:32.049Z,11.70
2022-11-05T20:11:29.004Z,13.90
2022-11-05T20:16:31.291Z,13.70
2022-11-05T20:21:28.675Z,13.80
2022-11-05T20:26:28.788Z,11.80
2022-11-05T20:31:28.176Z,12.20
2022-11-05T20:36:28.679Z,12.30
2022-11-05T20:41:29.672Z,13.10
2022-11-05T20:46:29.351Z,15.10
2022-11-05T20:51:28.989Z,15.40
2022-11-05T20:56:30.182Z,14.50
2022-11-05T21:01:30.489Z,13.70
2022-11-05T21:06:28.992Z,13.30
2022-11-05T21:11:28.628Z,14.00
2022-11-05T21:16:28.146Z,16.10
2022-11-05T21:21:28.487Z,32.10
2022-11-05T21:26:29.946Z,21.40
2022-11-05T21:31:28.133Z,35.40
2022-11-05T21:36:29.435Z,24.70
2022-11-05T21:41:28.091Z,36.00
2022-11-05T21:46:28.267Z,24.60
2022-11-05T21:51:38.540Z,71.90
2022-11-05T21:56:38.255Z,45.60
2022-11-05T22:01:28.339Z,36.60
2022-11-05T22:06:28.254Z,60.50
2022-11-05T22:11:28.075Z,128.00
2022-11-05T22:16:28.086Z,63.90
2022-11-05T22:21:28.490Z,84.30
2022-11-05T22:26:28.656Z,57.20
2022-11-05T22:31:31.909Z,59.40
2022-11-05T22:36:28.282Z,69.40
2022-11-05T22:41:28.388Z,67.50
2022-11-05T22:46:28.503Z,102.30
2022-11-05T22:51:31.409Z,59.00
2022-11-05T22:56:29.818Z,67.10
2022-11-05T23:01:28.479Z,83.80
2022-11-05T23:06:40.127Z,43.60
2022-11-05T23:11:35.134Z,89.60
2022-11-05T23:16:37.822Z,46.20
2022-11-05T23:21:38.104Z,130.40
2022-11-05T23:26:37.966Z,101.40
2022-11-05T23:31:37.874Z,42.70
2022-11-05T23:36:37.808Z,57.40
2022-11-05T23:41:37.803Z,37.60
2022-11-05T23:46:37.727Z,51.10
2022-11-05T23:51:28.191Z,48.00
2022-11-05T23:56:27.985Z,61.90
